sensor_id;sensor_type;location;lat;lon;timestamp;P1;durP1;ratioP1;P2;durP2;ratioP2
22579;SDS011;11456;47.030;15.396;2023-12-22T00:01:25;0.45;;;0.40;;
22579;SDS011;11456;47.030;15.396;2023-12-22T00:03:51;0.68;;;0.50;;
22579;SDS011;11456;47.030;15.396;2023-12-22T00:06:18;0.50;;;0.50;;
22579;SDS011;11456;47.030;15.396;2023-12-22T00:08:45;0.40;;;0.40;;
22579;SDS011;11456;47.030;15.396;2023-12-22T00:11:12;0.68;;;0.40;;
22579;SDS011;11456;47.030;15.396;2023-12-22T00:13:38;0.40;;;0.40;;
22579;SDS011;11456;47.030;15.396;2023-12-22T00:16:05;0.30;;;0.30;;
22579;SDS011;11456;47.030;15.396;2023-12-22T00:18:32;0.40;;;0.40;;
22579;SDS011;11456;47.030;15.396;2023-12-22T00:20:59;2.28;;;0.80;;
22579;SDS011;11456;47.030;15.396;2023-12-22T00:23:25;1.63;;;0.50;;
22579;SDS011;11456;47.030;15.396;2023-12-22T00:25:52;1.60;;;0.50;;
22579;SDS011;11456;47.030;15.396;2023-12-22T00:28:19;0.50;;;0.50;;
22579;SDS011;11456;47.030;15.396;2023-12-22T00:30:45;0.77;;;0.60;;
22579;SDS011;11456;47.030;15.396;2023-12-22T00:33:12;0.50;;;0.50;;
22579;SDS011;11456;47.030;15.396;2023-12-22T00:35:39;0.50;;;0.50;;
22579;SDS011;11456;47.030;15.396;2023-12-22T00:38:06;0.60;;;0.60;;
22579;SDS011;11456;47.030;15.396;2023-12-22T00:40:33;0.75;;;0.65;;
22579;SDS011;11456;47.030;15.396;2023-12-22T00:42:59;1.58;;;1.00;;
22579;SDS011;11456;47.030;15.396;2023-12-22T00:45:26;1.58;;;1.10;;
22579;SDS011;11456;47.030;15.396;2023-12-22T00:47:53;2.13;;;1.15;;
22579;SDS011;11456;47.030;15.396;2023-12-22T00:50:20;2.17;;;1.50;;
22579;SDS011;11456;47.030;15.396;2023-12-22T00:52:46;4.55;;;1.98;;
22579;SDS011;11456;47.030;15.396;2023-12-22T00:55:13;4.43;;;2.08;;
22579;SDS011;11456;47.030;15.396;2023-12-22T00:57:40;3.65;;;2.38;;
22579;SDS011;11456;47.030;15.396;2023-12-22T01:00:07;12.05;;;4.45;;
22579;SDS011;11456;47.030;15.396;2023-12-22T01:02:37;6.35;;;3.28;;
22579;SDS011;11456;47.030;15.396;2023-12-22T01:05:04;2.92;;;2.00;;
22579;SDS011;11456;47.030;15.396;2023-12-22T01:07:31;2.75;;;1.20;;
22579;SDS011;11456;47.030;15.396;2023-12-22T01:09:58;3.25;;;1.65;;
22579;SDS011;11456;47.030;15.396;2023-12-22T01:12:30;3.67;;;1.50;;
22579;SDS011;11456;47.030;15.396;2023-12-22T01:14:57;3.63;;;1.55;;
22579;SDS011;11456;47.030;15.396;2023-12-22T01:17:23;1.40;;;1.30;;
22579;SDS011;11456;47.030;15.396;2023-12-22T01:19:50;2.78;;;1.58;;
22579;SDS011;11456;47.030;15.396;2023-12-22T01:22:17;0.90;;;0.77;;
22579;SDS011;11456;47.030;15.396;2023-12-22T01:24:44;2.75;;;0.70;;
22579;SDS011;11456;47.030;15.396;2023-12-22T01:27:12;1.33;;;0.95;;
22579;SDS011;11456;47.030;15.396;2023-12-22T01:29:39;0.63;;;0.60;;
22579;SDS011;11456;47.030;15.396;2023-12-22T01:32:06;0.40;;;0.40;;
22579;SDS011;11456;47.030;15.396;2023-12-22T01:34:33;3.10;;;0.70;;
22579;SDS011;11456;47.030;15.396;2023-12-22T01:36:59;0.40;;;0.40;;
22579;SDS011;11456;47.030;15.396;2023-12-22T01:39:26;0.45;;;0.40;;
22579;SDS011;11456;47.030;15.396;2023-12-22T01:41:53;0.40;;;0.40;;
22579;SDS011;11456;47.030;15.396;2023-12-22T01:44:19;1.83;;;0.70;;
22579;SDS011;11456;47.030;15.396;2023-12-22T01:46:46;0.60;;;0.40;;
22579;SDS011;11456;47.030;15.396;2023-12-22T01:49:13;0.55;;;0.40;;
22579;SDS011;11456;47.030;15.396;2023-12-22T01:51:41;1.08;;;0.38;;
22579;SDS011;11456;47.030;15.396;2023-12-22T01:54:09;0.22;;;0.22;;
22579;SDS011;11456;47.030;15.396;2023-12-22T01:56:37;0.30;;;0.30;;
22579;SDS011;11456;47.030;15.396;2023-12-22T01:59:03;0.28;;;0.28;;
22579;SDS011;11456;47.030;15.396;2023-12-22T02:01:31;0.30;;;0.30;;
22579;SDS011;11456;47.030;15.396;2023-12-22T02:03:58;0.30;;;0.30;;
22579;SDS011;11456;47.030;15.396;2023-12-22T02:06:26;1.85;;;0.22;;
22579;SDS011;11456;47.030;15.396;2023-12-22T02:08:53;0.22;;;0.22;;
22579;SDS011;11456;47.030;15.396;2023-12-22T02:11:20;0.20;;;0.20;;
22579;SDS011;11456;47.030;15.396;2023-12-22T02:13:47;0.20;;;0.20;;
22579;SDS011;11456;47.030;15.396;2023-12-22T02:16:26;0.28;;;0.28;;
22579;SDS011;11456;47.030;15.396;2023-12-22T02:19:00;0.35;;;0.30;;
22579;SDS011;11456;47.030;15.396;2023-12-22T02:21:34;0.35;;;0.20;;
22579;SDS011;11456;47.030;15.396;2023-12-22T02:24:00;0.32;;;0.20;;
22579;SDS011;11456;47.030;15.396;2023-12-22T02:26:28;0.45;;;0.30;;
22579;SDS011;11456;47.030;15.396;2023-12-22T02:29:04;0.30;;;0.30;;
22579;SDS011;11456;47.030;15.396;2023-12-22T02:31:34;0.25;;;0.20;;
22579;SDS011;11456;47.030;15.396;2023-12-22T02:34:07;0.30;;;0.30;;
22579;SDS011;11456;47.030;15.396;2023-12-22T02:36:39;0.25;;;0.25;;
22579;SDS011;11456;47.030;15.396;2023-12-22T02:39:08;0.43;;;0.22;;
22579;SDS011;11456;47.030;15.396;2023-12-22T02:41:36;0.25;;;0.25;;
22579;SDS011;11456;47.030;15.396;2023-12-22T02:44:03;0.57;;;0.50;;
22579;SDS011;11456;47.030;15.396;2023-12-22T02:46:29;0.60;;;0.40;;
22579;SDS011;11456;47.030;15.396;2023-12-22T02:48:56;0.30;;;0.30;;
22579;SDS011;11456;47.030;15.396;2023-12-22T02:51:23;0.40;;;0.40;;
22579;SDS011;11456;47.030;15.396;2023-12-22T02:53:50;0.30;;;0.30;;
22579;SDS011;11456;47.030;15.396;2023-12-22T02:56:16;0.68;;;0.40;;
22579;SDS011;11456;47.030;15.396;2023-12-22T02:58:43;0.40;;;0.40;;
22579;SDS011;11456;47.030;15.396;2023-12-22T03:01:10;0.22;;;0.22;;
22579;SDS011;11456;47.030;15.396;2023-12-22T03:03:36;0.35;;;0.30;;
22579;SDS011;11456;47.030;15.396;2023-12-22T03:06:03;0.30;;;0.30;;
22579;SDS011;11456;47.030;15.396;2023-12-22T03:08:30;1.63;;;0.43;;
22579;SDS011;11456;47.030;15.396;2023-12-22T03:10:57;0.50;;;0.40;;
22579;SDS011;11456;47.030;15.396;2023-12-22T03:13:24;0.35;;;0.30;;
22579;SDS011;11456;47.030;15.396;2023-12-22T03:15:50;0.35;;;0.35;;
22579;SDS011;11456;47.030;15.396;2023-12-22T03:18:17;1.85;;;0.47;;
22579;SDS011;11456;47.030;15.396;2023-12-22T03:20:44;0.20;;;0.20;;
22579;SDS011;11456;47.030;15.396;2023-12-22T03:23:11;0.90;;;0.50;;
22579;SDS011;11456;47.030;15.396;2023-12-22T03:25:37;0.40;;;0.40;;
22579;SDS011;11456;47.030;15.396;2023-12-22T03:28:04;0.63;;;0.20;;
22579;SDS011;11456;47.030;15.396;2023-12-22T03:30:31;0.20;;;0.20;;
22579;SDS011;11456;47.030;15.396;2023-12-22T03:32:57;0.30;;;0.30;;
22579;SDS011;11456;47.030;15.396;2023-12-22T03:35:24;0.20;;;0.20;;
22579;SDS011;11456;47.030;15.396;2023-12-22T03:37:51;0.50;;;0.30;;
22579;SDS011;11456;47.030;15.396;2023-12-22T03:40:19;0.30;;;0.30;;
22579;SDS011;11456;47.030;15.396;2023-12-22T03:42:45;0.20;;;0.20;;
22579;SDS011;11456;47.030;15.396;2023-12-22T03:45:12;0.30;;;0.30;;
22579;SDS011;11456;47.030;15.396;2023-12-22T03:47:39;0.43;;;0.43;;
22579;SDS011;11456;47.030;15.396;2023-12-22T03:50:05;0.30;;;0.30;;
22579;SDS011;11456;47.030;15.396;2023-12-22T03:52:33;0.45;;;0.45;;
22579;SDS011;11456;47.030;15.396;2023-12-22T03:55:00;0.50;;;0.50;;
22579;SDS011;11456;47.030;15.396;2023-12-22T03:57:26;0.40;;;0.40;;
22579;SDS011;11456;47.030;15.396;2023-12-22T03:59:53;0.32;;;0.32;;
22579;SDS011;11456;47.030;15.396;2023-12-22T04:02:20;0.68;;;0.50;;
22579;SDS011;11456;47.030;15.396;2023-12-22T04:04:46;1.02;;;0.75;;
22579;SDS011;11456;47.030;15.396;2023-12-22T04:07:13;2.17;;;0.98;;
22579;SDS011;11456;47.030;15.396;2023-12-22T04:09:40;0.70;;;0.70;;
22579;SDS011;11456;47.030;15.396;2023-12-22T04:12:06;0.40;;;0.40;;
22579;SDS011;11456;47.030;15.396;2023-12-22T04:14:33;1.05;;;0.60;;
22579;SDS011;11456;47.030;15.396;2023-12-22T04:17:00;0.45;;;0.43;;
22579;SDS011;11456;47.030;15.396;2023-12-22T04:19:27;0.65;;;0.50;;
22579;SDS011;11456;47.030;15.396;2023-12-22T04:21:54;2.08;;;0.60;;
22579;SDS011;11456;47.030;15.396;2023-12-22T04:24:20;0.50;;;0.40;;
22579;SDS011;11456;47.030;15.396;2023-12-22T04:26:47;0.50;;;0.50;;
22579;SDS011;11456;47.030;15.396;2023-12-22T04:29:13;0.40;;;0.40;;
22579;SDS011;11456;47.030;15.396;2023-12-22T04:31:40;0.50;;;0.50;;
22579;SDS011;11456;47.030;15.396;2023-12-22T04:34:07;0.40;;;0.40;;
22579;SDS011;11456;47.030;15.396;2023-12-22T04:36:34;0.50;;;0.50;;
22579;SDS011;11456;47.030;15.396;2023-12-22T04:39:02;0.30;;;0.30;;
22579;SDS011;11456;47.030;15.396;2023-12-22T04:41:28;0.30;;;0.30;;
22579;SDS011;11456;47.030;15.396;2023-12-22T04:43:55;0.30;;;0.30;;
22579;SDS011;11456;47.030;15.396;2023-12-22T04:46:22;1.10;;;0.88;;
22579;SDS011;11456;47.030;15.396;2023-12-22T04:48:48;1.08;;;0.47;;
22579;SDS011;11456;47.030;15.396;2023-12-22T04:51:15;0.65;;;0.63;;
22579;SDS011;11456;47.030;15.396;2023-12-22T04:53:42;18.88;;;6.50;;
22579;SDS011;11456;47.030;15.396;2023-12-22T04:56:08;4.70;;;2.42;;
22579;SDS011;11456;47.030;15.396;2023-12-22T04:58:35;0.73;;;0.70;;
22579;SDS011;11456;47.030;15.396;2023-12-22T05:01:02;1.23;;;1.00;;
22579;SDS011;11456;47.030;15.396;2023-12-22T05:03:29;1.23;;;0.80;;
22579;SDS011;11456;47.030;15.396;2023-12-22T05:05:55;3.80;;;1.80;;
22579;SDS011;11456;47.030;15.396;2023-12-22T05:08:22;4.88;;;2.60;;
22579;SDS011;11456;47.030;15.396;2023-12-22T05:10:49;7.18;;;3.85;;
22579;SDS011;11456;47.030;15.396;2023-12-22T05:13:15;7.38;;;3.47;;
22579;SDS011;11456;47.030;15.396;2023-12-22T05:15:42;7.20;;;3.60;;
22579;SDS011;11456;47.030;15.396;2023-12-22T05:18:09;6.00;;;2.90;;
22579;SDS011;11456;47.030;15.396;2023-12-22T05:20:35;6.97;;;3.25;;
22579;SDS011;11456;47.030;15.396;2023-12-22T05:23:02;6.28;;;2.20;;
22579;SDS011;11456;47.030;15.396;2023-12-22T05:25:29;3.67;;;2.00;;
22579;SDS011;11456;47.030;15.396;2023-12-22T05:27:56;3.47;;;2.10;;
22579;SDS011;11456;47.030;15.396;2023-12-22T05:30:23;3.00;;;1.20;;
22579;SDS011;11456;47.030;15.396;2023-12-22T05:32:50;2.80;;;1.60;;
22579;SDS011;11456;47.030;15.396;2023-12-22T05:35:17;3.30;;;1.73;;
22579;SDS011;11456;47.030;15.396;2023-12-22T05:37:43;3.08;;;2.15;;
22579;SDS011;11456;47.030;15.396;2023-12-22T05:40:10;4.70;;;2.90;;
22579;SDS011;11456;47.030;15.396;2023-12-22T05:42:38;4.20;;;1.60;;
22579;SDS011;11456;47.030;15.396;2023-12-22T05:45:05;1.23;;;0.75;;
22579;SDS011;11456;47.030;15.396;2023-12-22T05:47:33;0.60;;;0.50;;
22579;SDS011;11456;47.030;15.396;2023-12-22T05:49:59;0.70;;;0.57;;
22579;SDS011;11456;47.030;15.396;2023-12-22T05:52:26;0.77;;;0.50;;
22579;SDS011;11456;47.030;15.396;2023-12-22T05:54:53;0.30;;;0.30;;
22579;SDS011;11456;47.030;15.396;2023-12-22T05:57:20;0.85;;;0.80;;
22579;SDS011;11456;47.030;15.396;2023-12-22T05:59:47;3.72;;;2.47;;
22579;SDS011;11456;47.030;15.396;2023-12-22T06:02:13;4.28;;;2.40;;
22579;SDS011;11456;47.030;15.396;2023-12-22T06:04:40;1.50;;;0.90;;
22579;SDS011;11456;47.030;15.396;2023-12-22T06:07:07;0.77;;;0.60;;
22579;SDS011;11456;47.030;15.396;2023-12-22T06:09:34;2.47;;;1.20;;
22579;SDS011;11456;47.030;15.396;2023-12-22T06:12:00;2.20;;;0.70;;
22579;SDS011;11456;47.030;15.396;2023-12-22T06:14:27;1.40;;;0.93;;
22579;SDS011;11456;47.030;15.396;2023-12-22T06:16:54;0.80;;;0.45;;
22579;SDS011;11456;47.030;15.396;2023-12-22T06:19:23;0.30;;;0.30;;
22579;SDS011;11456;47.030;15.396;2023-12-22T06:21:51;0.38;;;0.38;;
22579;SDS011;11456;47.030;15.396;2023-12-22T06:24:18;0.43;;;0.30;;
22579;SDS011;11456;47.030;15.396;2023-12-22T06:26:45;0.95;;;0.45;;
22579;SDS011;11456;47.030;15.396;2023-12-22T06:29:11;4.30;;;0.47;;
22579;SDS011;11456;47.030;15.396;2023-12-22T06:31:38;0.70;;;0.50;;
22579;SDS011;11456;47.030;15.396;2023-12-22T06:34:05;0.80;;;0.40;;
22579;SDS011;11456;47.030;15.396;2023-12-22T06:36:32;0.65;;;0.52;;
22579;SDS011;11456;47.030;15.396;2023-12-22T06:38:58;1.13;;;0.55;;
22579;SDS011;11456;47.030;15.396;2023-12-22T06:41:29;0.40;;;0.40;;
22579;SDS011;11456;47.030;15.396;2023-12-22T06:43:57;1.60;;;0.50;;
22579;SDS011;11456;47.030;15.396;2023-12-22T06:46:27;1.75;;;0.60;;
22579;SDS011;11456;47.030;15.396;2023-12-22T06:48:55;0.50;;;0.50;;
22579;SDS011;11456;47.030;15.396;2023-12-22T06:51:23;0.93;;;0.80;;
22579;SDS011;11456;47.030;15.396;2023-12-22T06:53:52;1.85;;;1.33;;
22579;SDS011;11456;47.030;15.396;2023-12-22T06:56:21;1.83;;;1.50;;
22579;SDS011;11456;47.030;15.396;2023-12-22T06:58:52;2.08;;;0.95;;
22579;SDS011;11456;47.030;15.396;2023-12-22T07:01:24;4.97;;;1.13;;
22579;SDS011;11456;47.030;15.396;2023-12-22T07:03:52;2.20;;;0.90;;
22579;SDS011;11456;47.030;15.396;2023-12-22T07:06:19;1.42;;;1.00;;
22579;SDS011;11456;47.030;15.396;2023-12-22T07:11:49;1.17;;;0.80;;
22579;SDS011;11456;47.030;15.396;2023-12-22T07:14:16;1.23;;;0.57;;
22579;SDS011;11456;47.030;15.396;2023-12-22T07:16:43;3.30;;;1.65;;
22579;SDS011;11456;47.030;15.396;2023-12-22T07:19:11;2.88;;;1.13;;
22579;SDS011;11456;47.030;15.396;2023-12-22T07:21:39;0.43;;;0.38;;
22579;SDS011;11456;47.030;15.396;2023-12-22T07:24:09;0.85;;;0.60;;
22579;SDS011;11456;47.030;15.396;2023-12-22T07:26:35;1.33;;;0.90;;
22579;SDS011;11456;47.030;15.396;2023-12-22T07:29:03;1.83;;;0.70;;
22579;SDS011;11456;47.030;15.396;2023-12-22T07:31:30;0.57;;;0.32;;
22579;SDS011;11456;47.030;15.396;2023-12-22T07:33:56;2.08;;;1.13;;
22579;SDS011;11456;47.030;15.396;2023-12-22T07:36:23;3.05;;;1.40;;
22579;SDS011;11456;47.030;15.396;2023-12-22T07:38:49;2.35;;;1.25;;
22579;SDS011;11456;47.030;15.396;2023-12-22T07:41:16;5.10;;;1.70;;
22579;SDS011;11456;47.030;15.396;2023-12-22T07:43:45;3.55;;;1.80;;
22579;SDS011;11456;47.030;15.396;2023-12-22T07:46:16;1.95;;;1.10;;
22579;SDS011;11456;47.030;15.396;2023-12-22T07:48:46;2.00;;;1.10;;
22579;SDS011;11456;47.030;15.396;2023-12-22T07:51:14;1.50;;;1.10;;
22579;SDS011;11456;47.030;15.396;2023-12-22T07:53:41;2.47;;;1.30;;
22579;SDS011;11456;47.030;15.396;2023-12-22T07:56:08;1.92;;;1.20;;
22579;SDS011;11456;47.030;15.396;2023-12-22T07:58:38;3.30;;;1.42;;
22579;SDS011;11456;47.030;15.396;2023-12-22T08:01:04;0.65;;;0.55;;
22579;SDS011;11456;47.030;15.396;2023-12-22T08:03:34;2.70;;;0.80;;
22579;SDS011;11456;47.030;15.396;2023-12-22T08:06:01;1.42;;;0.70;;
22579;SDS011;11456;47.030;15.396;2023-12-22T08:08:28;1.13;;;0.63;;
22579;SDS011;11456;47.030;15.396;2023-12-22T08:10:55;2.13;;;1.40;;
22579;SDS011;11456;47.030;15.396;2023-12-22T08:13:22;2.33;;;1.60;;
22579;SDS011;11456;47.030;15.396;2023-12-22T08:15:48;2.78;;;1.15;;
22579;SDS011;11456;47.030;15.396;2023-12-22T08:18:15;1.13;;;0.77;;
22579;SDS011;11456;47.030;15.396;2023-12-22T08:20:42;0.60;;;0.60;;
22579;SDS011;11456;47.030;15.396;2023-12-22T08:23:12;0.90;;;0.70;;
22579;SDS011;11456;47.030;15.396;2023-12-22T08:25:40;1.00;;;0.80;;
22579;SDS011;11456;47.030;15.396;2023-12-22T08:28:11;2.72;;;1.67;;
22579;SDS011;11456;47.030;15.396;2023-12-22T08:30:39;1.73;;;1.30;;
22579;SDS011;11456;47.030;15.396;2023-12-22T08:33:05;1.10;;;1.00;;
22579;SDS011;11456;47.030;15.396;2023-12-22T08:35:32;0.30;;;0.30;;
22579;SDS011;11456;47.030;15.396;2023-12-22T08:37:59;0.40;;;0.40;;
22579;SDS011;11456;47.030;15.396;2023-12-22T08:40:26;0.90;;;0.90;;
22579;SDS011;11456;47.030;15.396;2023-12-22T08:42:54;1.15;;;0.82;;
22579;SDS011;11456;47.030;15.396;2023-12-22T08:45:21;3.00;;;1.83;;
22579;SDS011;11456;47.030;15.396;2023-12-22T08:47:48;3.03;;;1.92;;
22579;SDS011;11456;47.030;15.396;2023-12-22T08:50:15;0.82;;;0.80;;
22579;SDS011;11456;47.030;15.396;2023-12-22T08:52:42;1.10;;;0.80;;
22579;SDS011;11456;47.030;15.396;2023-12-22T08:55:08;1.42;;;1.00;;
22579;SDS011;11456;47.030;15.396;2023-12-22T08:57:35;0.60;;;0.60;;
22579;SDS011;11456;47.030;15.396;2023-12-22T09:00:02;3.13;;;1.98;;
22579;SDS011;11456;47.030;15.396;2023-12-22T09:02:29;2.35;;;1.67;;
22579;SDS011;11456;47.030;15.396;2023-12-22T09:04:56;2.85;;;1.05;;
22579;SDS011;11456;47.030;15.396;2023-12-22T09:07:23;0.68;;;0.60;;
22579;SDS011;11456;47.030;15.396;2023-12-22T09:09:51;0.55;;;0.55;;
22579;SDS011;11456;47.030;15.396;2023-12-22T09:12:18;1.63;;;0.50;;
22579;SDS011;11456;47.030;15.396;2023-12-22T09:14:44;0.70;;;0.52;;
22579;SDS011;11456;47.030;15.396;2023-12-22T09:17:11;1.23;;;0.70;;
22579;SDS011;11456;47.030;15.396;2023-12-22T09:19:38;0.52;;;0.43;;
22579;SDS011;11456;47.030;15.396;2023-12-22T09:22:05;0.50;;;0.50;;
22579;SDS011;11456;47.030;15.396;2023-12-22T09:24:32;0.60;;;0.60;;
22579;SDS011;11456;47.030;15.396;2023-12-22T09:26:59;1.45;;;0.40;;
22579;SDS011;11456;47.030;15.396;2023-12-22T09:29:29;0.65;;;0.65;;
22579;SDS011;11456;47.030;15.396;2023-12-22T09:31:58;2.20;;;0.45;;
22579;SDS011;11456;47.030;15.396;2023-12-22T09:34:28;2.88;;;1.98;;
22579;SDS011;11456;47.030;15.396;2023-12-22T09:36:54;4.15;;;1.70;;
22579;SDS011;11456;47.030;15.396;2023-12-22T09:39:22;2.88;;;1.80;;
22579;SDS011;11456;47.030;15.396;2023-12-22T09:41:49;5.43;;;2.95;;
22579;SDS011;11456;47.030;15.396;2023-12-22T09:44:18;5.30;;;2.63;;
22579;SDS011;11456;47.030;15.396;2023-12-22T09:46:50;4.63;;;2.30;;
22579;SDS011;11456;47.030;15.396;2023-12-22T09:49:18;2.17;;;1.55;;
22579;SDS011;11456;47.030;15.396;2023-12-22T09:51:47;1.70;;;1.38;;
22579;SDS011;11456;47.030;15.396;2023-12-22T09:54:15;1.42;;;1.15;;
22579;SDS011;11456;47.030;15.396;2023-12-22T09:56:43;5.35;;;2.22;;
22579;SDS011;11456;47.030;15.396;2023-12-22T09:59:11;2.53;;;1.20;;
22579;SDS011;11456;47.030;15.396;2023-12-22T10:01:42;2.80;;;1.50;;
22579;SDS011;11456;47.030;15.396;2023-12-22T10:04:13;1.63;;;1.30;;
22579;SDS011;11456;47.030;15.396;2023-12-22T10:06:43;1.88;;;1.60;;
22579;SDS011;11456;47.030;15.396;2023-12-22T10:09:13;2.03;;;1.70;;
22579;SDS011;11456;47.030;15.396;2023-12-22T10:11:43;21.95;;;7.60;;
22579;SDS011;11456;47.030;15.396;2023-12-22T10:14:10;25.23;;;8.63;;
22579;SDS011;11456;47.030;15.396;2023-12-22T10:16:38;17.58;;;6.18;;
22579;SDS011;11456;47.030;15.396;2023-12-22T10:19:05;6.47;;;4.28;;
22579;SDS011;11456;47.030;15.396;2023-12-22T10:21:33;8.10;;;5.05;;
22579;SDS011;11456;47.030;15.396;2023-12-22T10:24:01;8.45;;;5.60;;
22579;SDS011;11456;47.030;15.396;2023-12-22T10:26:28;18.05;;;7.68;;
22579;SDS011;11456;47.030;15.396;2023-12-22T10:28:54;2.17;;;1.40;;
22579;SDS011;11456;47.030;15.396;2023-12-22T10:31:21;1.75;;;1.10;;
22579;SDS011;11456;47.030;15.396;2023-12-22T10:33:48;1.50;;;0.80;;
22579;SDS011;11456;47.030;15.396;2023-12-22T10:36:15;0.77;;;0.60;;
22579;SDS011;11456;47.030;15.396;2023-12-22T10:38:43;0.55;;;0.55;;
22579;SDS011;11456;47.030;15.396;2023-12-22T10:41:11;0.82;;;0.60;;
22579;SDS011;11456;47.030;15.396;2023-12-22T10:43:38;1.73;;;0.60;;
22579;SDS011;11456;47.030;15.396;2023-12-22T10:46:06;3.15;;;0.75;;
22579;SDS011;11456;47.030;15.396;2023-12-22T10:48:38;2.28;;;1.50;;
22579;SDS011;11456;47.030;15.396;2023-12-22T10:51:09;2.05;;;1.30;;
22579;SDS011;11456;47.030;15.396;2023-12-22T10:53:40;1.40;;;1.17;;
22579;SDS011;11456;47.030;15.396;2023-12-22T10:56:07;5.00;;;3.20;;
22579;SDS011;11456;47.030;15.396;2023-12-22T10:58:34;6.30;;;3.67;;
22579;SDS011;11456;47.030;15.396;2023-12-22T11:01:02;7.65;;;4.40;;
22579;SDS011;11456;47.030;15.396;2023-12-22T11:03:29;1.42;;;1.20;;
22579;SDS011;11456;47.030;15.396;2023-12-22T11:06:00;0.63;;;0.63;;
22579;SDS011;11456;47.030;15.396;2023-12-22T11:08:33;1.92;;;0.70;;
22579;SDS011;11456;47.030;15.396;2023-12-22T11:11:03;1.58;;;0.80;;
22579;SDS011;11456;47.030;15.396;2023-12-22T11:13:40;1.00;;;0.70;;
22579;SDS011;11456;47.030;15.396;2023-12-22T11:16:09;1.45;;;1.10;;
22579;SDS011;11456;47.030;15.396;2023-12-22T11:18:36;3.65;;;1.33;;
22579;SDS011;11456;47.030;15.396;2023-12-22T11:21:03;2.97;;;1.90;;
22579;SDS011;11456;47.030;15.396;2023-12-22T11:23:33;2.22;;;1.63;;
22579;SDS011;11456;47.030;15.396;2023-12-22T11:26:01;4.82;;;2.53;;
22579;SDS011;11456;47.030;15.396;2023-12-22T11:28:31;4.75;;;2.72;;
22579;SDS011;11456;47.030;15.396;2023-12-22T11:30:59;7.38;;;3.28;;
22579;SDS011;11456;47.030;15.396;2023-12-22T11:33:27;6.88;;;3.50;;
22579;SDS011;11456;47.030;15.396;2023-12-22T11:35:56;8.20;;;2.55;;
22579;SDS011;11456;47.030;15.396;2023-12-22T11:38:24;3.22;;;1.60;;
22579;SDS011;11456;47.030;15.396;2023-12-22T11:40:51;3.88;;;1.77;;
22579;SDS011;11456;47.030;15.396;2023-12-22T11:43:19;2.10;;;1.27;;
22579;SDS011;11456;47.030;15.396;2023-12-22T11:45:50;2.35;;;1.40;;
22579;SDS011;11456;47.030;15.396;2023-12-22T11:48:17;2.65;;;1.17;;
22579;SDS011;11456;47.030;15.396;2023-12-22T11:50:44;2.50;;;1.45;;
22579;SDS011;11456;47.030;15.396;2023-12-22T11:53:21;2.30;;;1.55;;
22579;SDS011;11456;47.030;15.396;2023-12-22T11:58:34;5.18;;;2.10;;
22579;SDS011;11456;47.030;15.396;2023-12-22T12:01:02;1.80;;;1.00;;
22579;SDS011;11456;47.030;15.396;2023-12-22T12:03:31;5.18;;;1.23;;
22579;SDS011;11456;47.030;15.396;2023-12-22T12:06:11;2.75;;;1.33;;
22579;SDS011;11456;47.030;15.396;2023-12-22T12:08:42;2.50;;;0.80;;
22579;SDS011;11456;47.030;15.396;2023-12-22T12:11:09;2.65;;;1.15;;
22579;SDS011;11456;47.030;15.396;2023-12-22T12:13:38;3.00;;;1.40;;
22579;SDS011;11456;47.030;15.396;2023-12-22T12:16:09;0.80;;;0.80;;
22579;SDS011;11456;47.030;15.396;2023-12-22T12:18:40;3.45;;;1.00;;
22579;SDS011;11456;47.030;15.396;2023-12-22T12:21:07;2.55;;;1.20;;
22579;SDS011;11456;47.030;15.396;2023-12-22T12:23:36;1.00;;;0.75;;
22579;SDS011;11456;47.030;15.396;2023-12-22T12:26:04;2.75;;;1.00;;
22579;SDS011;11456;47.030;15.396;2023-12-22T12:28:33;1.52;;;1.05;;
22579;SDS011;11456;47.030;15.396;2023-12-22T12:31:03;1.88;;;1.10;;
22579;SDS011;11456;47.030;15.396;2023-12-22T12:33:31;1.05;;;0.95;;
22579;SDS011;11456;47.030;15.396;2023-12-22T12:35:59;2.72;;;1.13;;
22579;SDS011;11456;47.030;15.396;2023-12-22T12:38:42;2.88;;;1.00;;
22579;SDS011;11456;47.030;15.396;2023-12-22T12:41:14;2.28;;;1.13;;
22579;SDS011;11456;47.030;15.396;2023-12-22T12:43:42;2.28;;;1.23;;
22579;SDS011;11456;47.030;15.396;2023-12-22T12:46:10;2.28;;;1.63;;
22579;SDS011;11456;47.030;15.396;2023-12-22T12:48:37;2.92;;;1.10;;
22579;SDS011;11456;47.030;15.396;2023-12-22T12:51:04;2.28;;;0.85;;
22579;SDS011;11456;47.030;15.396;2023-12-22T12:53:32;5.03;;;1.30;;
22579;SDS011;11456;47.030;15.396;2023-12-22T12:56:00;2.60;;;1.13;;
22579;SDS011;11456;47.030;15.396;2023-12-22T12:58:30;1.40;;;1.00;;
22579;SDS011;11456;47.030;15.396;2023-12-22T13:01:08;5.03;;;2.15;;
22579;SDS011;11456;47.030;15.396;2023-12-22T13:03:51;3.83;;;1.85;;
22579;SDS011;11456;47.030;15.396;2023-12-22T13:06:21;4.07;;;2.13;;
22579;SDS011;11456;47.030;15.396;2023-12-22T13:08:52;4.45;;;2.83;;
22579;SDS011;11456;47.030;15.396;2023-12-22T13:11:22;6.00;;;3.17;;
22579;SDS011;11456;47.030;15.396;2023-12-22T13:13:51;6.80;;;3.97;;
22579;SDS011;11456;47.030;15.396;2023-12-22T13:16:22;10.55;;;6.22;;
22579;SDS011;11456;47.030;15.396;2023-12-22T13:18:59;10.80;;;5.97;;
22579;SDS011;11456;47.030;15.396;2023-12-22T13:21:27;14.90;;;7.40;;
22579;SDS011;11456;47.030;15.396;2023-12-22T13:24:11;13.05;;;7.20;;
22579;SDS011;11456;47.030;15.396;2023-12-22T13:26:39;14.20;;;8.15;;
22579;SDS011;11456;47.030;15.396;2023-12-22T13:29:07;13.55;;;7.63;;
22579;SDS011;11456;47.030;15.396;2023-12-22T13:31:38;11.68;;;6.55;;
22579;SDS011;11456;47.030;15.396;2023-12-22T13:34:10;22.60;;;8.30;;
22579;SDS011;11456;47.030;15.396;2023-12-22T13:36:37;15.18;;;7.63;;
22579;SDS011;11456;47.030;15.396;2023-12-22T13:39:04;12.32;;;5.90;;
22579;SDS011;11456;47.030;15.396;2023-12-22T13:41:33;9.68;;;5.13;;
22579;SDS011;11456;47.030;15.396;2023-12-22T13:44:04;17.17;;;6.28;;
22579;SDS011;11456;47.030;15.396;2023-12-22T13:46:32;13.80;;;5.68;;
22579;SDS011;11456;47.030;15.396;2023-12-22T13:49:01;37.90;;;12.68;;
22579;SDS011;11456;47.030;15.396;2023-12-22T13:51:44;36.10;;;11.93;;
22579;SDS011;11456;47.030;15.396;2023-12-22T13:54:14;14.40;;;6.60;;
22579;SDS011;11456;47.030;15.396;2023-12-22T13:56:40;13.77;;;6.55;;
22579;SDS011;11456;47.030;15.396;2023-12-22T13:59:08;12.30;;;6.80;;
22579;SDS011;11456;47.030;15.396;2023-12-22T14:01:35;15.85;;;7.78;;
22579;SDS011;11456;47.030;15.396;2023-12-22T14:04:02;14.10;;;7.93;;
22579;SDS011;11456;47.030;15.396;2023-12-22T14:06:29;17.33;;;8.30;;
22579;SDS011;11456;47.030;15.396;2023-12-22T14:08:56;13.65;;;6.55;;
22579;SDS011;11456;47.030;15.396;2023-12-22T14:11:23;11.32;;;6.13;;
22579;SDS011;11456;47.030;15.396;2023-12-22T14:13:50;13.68;;;5.93;;
22579;SDS011;11456;47.030;15.396;2023-12-22T14:16:16;7.60;;;4.53;;
22579;SDS011;11456;47.030;15.396;2023-12-22T14:18:43;8.25;;;4.72;;
22579;SDS011;11456;47.030;15.396;2023-12-22T14:21:11;8.57;;;4.15;;
22579;SDS011;11456;47.030;15.396;2023-12-22T14:23:38;15.27;;;7.22;;
22579;SDS011;11456;47.030;15.396;2023-12-22T14:26:04;15.88;;;8.00;;
22579;SDS011;11456;47.030;15.396;2023-12-22T14:28:32;27.02;;;9.55;;
22579;SDS011;11456;47.030;15.396;2023-12-22T14:30:59;19.45;;;8.77;;
22579;SDS011;11456;47.030;15.396;2023-12-22T14:33:26;14.55;;;7.35;;
22579;SDS011;11456;47.030;15.396;2023-12-22T14:35:53;13.52;;;6.95;;
22579;SDS011;11456;47.030;15.396;2023-12-22T14:38:20;21.05;;;9.20;;
22579;SDS011;11456;47.030;15.396;2023-12-22T14:40:47;25.10;;;10.75;;
22579;SDS011;11456;47.030;15.396;2023-12-22T14:43:13;24.60;;;11.32;;